sensor_id;sensor_type;location;lat;lon;timestamp;temperature;humidity
66740;DHT22;53653;52.188;8.602;2022-11-28T01:42:59;6.20;80.07
66740;DHT22;53653;52.188;8.602;2022-11-28T01:45:28;6.20;79.97
66740;DHT22;53653;52.188;8.602;2022-11-28T01:47:56;6.18;79.63
66740;DHT22;53653;52.188;8.602;2022-11-28T01:50:24;6.20;79.41
66740;DHT22;53653;52.188;8.602;2022-11-28T01:52:53;6.18;79.86
66740;DHT22;53653;52.188;8.602;2022-11-28T01:55:23;6.21;79.87
66740;DHT22;53653;52.188;8.602;2022-11-28T01:57:51;6.22;79.56
66740;DHT22;53653;52.188;8.602;2022-11-28T02:00:19;6.24;79.69
66740;DHT22;53653;52.188;8.602;2022-11-28T02:02:51;6.22;79.01
66740;DHT22;53653;52.188;8.602;2022-11-28T02:05:19;6.28;78.31
66740;DHT22;53653;52.188;8.602;2022-11-28T02:07:46;6.27;79.35
66740;DHT22;53653;52.188;8.602;2022-11-28T02:10:17;6.28;78.98
66740;DHT22;53653;52.188;8.602;2022-11-28T02:15:49;6.30;79.64
66740;DHT22;53653;52.188;8.602;2022-11-28T02:18:54;6.31;79.66
66740;DHT22;53653;52.188;8.602;2022-11-28T02:24:13;6.25;79.47
66740;DHT22;53653;52.188;8.602;2022-11-28T02:32:14;6.25;80.15
66740;DHT22;53653;52.188;8.602;2022-11-28T02:40:12;6.17;81.45
66740;DHT22;53653;52.188;8.602;2022-11-28T02:56:09;6.07;81.70
66740;DHT22;53653;52.188;8.602;2022-11-28T02:58:36;6.11;82.44
66740;DHT22;53653;52.188;8.602;2022-11-28T03:01:02;6.10;82.45
66740;DHT22;53653;52.188;8.602;2022-11-28T03:03:51;6.10;81.89
66740;DHT22;53653;52.188;8.602;2022-11-28T03:09:24;6.09;81.77
66740;DHT22;53653;52.188;8.602;2022-11-28T03:14:51;6.06;82.12
66740;DHT22;53653;52.188;8.602;2022-11-28T03:17:23;6.07;83.05
66740;DHT22;53653;52.188;8.602;2022-11-28T03:28:26;6.11;81.45
66740;DHT22;53653;52.188;8.602;2022-11-28T03:33:26;6.07;81.15
66740;DHT22;53653;52.188;8.602;2022-11-28T03:35:58;6.07;81.00
66740;DHT22;53653;52.188;8.602;2022-11-28T03:38:33;6.11;80.10
66740;DHT22;53653;52.188;8.602;2022-11-28T03:41:02;6.07;81.08
66740;DHT22;53653;52.188;8.602;2022-11-28T03:43:35;6.03;81.22
66740;DHT22;53653;52.188;8.602;2022-11-28T03:46:07;5.99;81.27
66740;DHT22;53653;52.188;8.602;2022-11-28T03:48:38;5.97;81.96
66740;DHT22;53653;52.188;8.602;2022-11-28T03:53:50;5.89;82.53
66740;DHT22;53653;52.188;8.602;2022-11-28T03:58:54;5.80;83.15
66740;DHT22;53653;52.188;8.602;2022-11-28T04:09:15;5.73;83.12
66740;DHT22;53653;52.188;8.602;2022-11-28T04:12:09;5.67;84.35
66740;DHT22;53653;52.188;8.602;2022-11-28T04:14:52;5.66;84.18
66740;DHT22;53653;52.188;8.602;2022-11-28T04:17:28;5.62;85.20
66740;DHT22;53653;52.188;8.602;2022-11-28T04:19:58;5.60;83.94
66740;DHT22;53653;52.188;8.602;2022-11-28T04:22:31;5.60;84.97
66740;DHT22;53653;52.188;8.602;2022-11-28T04:25:03;5.59;84.56
66740;DHT22;53653;52.188;8.602;2022-11-28T04:27:34;5.55;85.02
66740;DHT22;53653;52.188;8.602;2022-11-28T04:30:03;5.52;85.47
66740;DHT22;53653;52.188;8.602;2022-11-28T04:32:30;5.51;85.03
66740;DHT22;53653;52.188;8.602;2022-11-28T04:35:06;5.52;84.12
66740;DHT22;53653;52.188;8.602;2022-11-28T04:37:36;5.60;84.01
66740;DHT22;53653;52.188;8.602;2022-11-28T04:40:03;5.66;83.51
66740;DHT22;53653;52.188;8.602;2022-11-28T04:42:32;5.69;83.63
66740;DHT22;53653;52.188;8.602;2022-11-28T04:47:28;5.70;83.64
66740;DHT22;53653;52.188;8.602;2022-11-28T04:49:54;5.74;82.93
66740;DHT22;53653;52.188;8.602;2022-11-28T04:52:46;5.77;81.88
66740;DHT22;53653;52.188;8.602;2022-11-28T04:55:28;5.80;82.09
66740;DHT22;53653;52.188;8.602;2022-11-28T04:58:14;5.79;83.34
66740;DHT22;53653;52.188;8.602;2022-11-28T05:00:42;5.80;81.95
66740;DHT22;53653;52.188;8.602;2022-11-28T05:03:08;5.86;80.75
66740;DHT22;53653;52.188;8.602;2022-11-28T05:05:46;5.87;82.11
66740;DHT22;53653;52.188;8.602;2022-11-28T05:08:12;5.86;81.89
66740;DHT22;53653;52.188;8.602;2022-11-28T05:10:38;5.87;81.24
66740;DHT22;53653;52.188;8.602;2022-11-28T05:13:03;5.89;81.47
66740;DHT22;53653;52.188;8.602;2022-11-28T05:15:29;5.90;80.79
66740;DHT22;53653;52.188;8.602;2022-11-28T05:17:54;5.96;80.58
66740;DHT22;53653;52.188;8.602;2022-11-28T05:20:20;6.00;80.59
66740;DHT22;53653;52.188;8.602;2022-11-28T05:22:45;5.94;82.10
66740;DHT22;53653;52.188;8.602;2022-11-28T05:25:11;6.00;79.81
66740;DHT22;53653;52.188;8.602;2022-11-28T05:27:36;6.01;80.44
66740;DHT22;53653;52.188;8.602;2022-11-28T05:30:03;6.03;80.09
66740;DHT22;53653;52.188;8.602;2022-11-28T05:32:29;6.01;80.15
66740;DHT22;53653;52.188;8.602;2022-11-28T05:34:55;6.00;79.50
66740;DHT22;53653;52.188;8.602;2022-11-28T05:37:21;6.00;81.53
66740;DHT22;53653;52.188;8.602;2022-11-28T05:39:46;5.96;81.25
66740;DHT22;53653;52.188;8.602;2022-11-28T05:42:11;5.97;81.56
66740;DHT22;53653;52.188;8.602;2022-11-28T05:44:36;6.00;81.72
66740;DHT22;53653;52.188;8.602;2022-11-28T05:47:02;6.00;81.20
66740;DHT22;53653;52.188;8.602;2022-11-28T05:49:27;6.03;80.90
66740;DHT22;53653;52.188;8.602;2022-11-28T05:51:53;6.04;81.19
66740;DHT22;53653;52.188;8.602;2022-11-28T05:54:18;6.07;82.80
66740;DHT22;53653;52.188;8.602;2022-11-28T05:56:44;6.10;81.55
66740;DHT22;53653;52.188;8.602;2022-11-28T05:59:09;6.13;81.57
66740;DHT22;53653;52.188;8.602;2022-11-28T06:01:34;6.11;80.79
66740;DHT22;53653;52.188;8.602;2022-11-28T06:04:00;6.07;81.67
66740;DHT22;53653;52.188;8.602;2022-11-28T06:06:31;6.06;82.57
66740;DHT22;53653;52.188;8.602;2022-11-28T06:08:57;6.03;83.03
66740;DHT22;53653;52.188;8.602;2022-11-28T06:11:24;5.97;82.73
66740;DHT22;53653;52.188;8.602;2022-11-28T06:13:50;5.90;83.26
66740;DHT22;53653;52.188;8.602;2022-11-28T06:16:24;5.86;84.63
66740;DHT22;53653;52.188;8.602;2022-11-28T06:18:54;5.81;84.22
66740;DHT22;53653;52.188;8.602;2022-11-28T06:21:20;5.81;84.58
66740;DHT22;53653;52.188;8.602;2022-11-28T06:23:45;5.77;84.49
66740;DHT22;53653;52.188;8.602;2022-11-28T06:26:13;5.73;84.46
66740;DHT22;53653;52.188;8.602;2022-11-28T06:28:39;5.67;85.17
66740;DHT22;53653;52.188;8.602;2022-11-28T06:31:26;5.66;85.22
66740;DHT22;53653;52.188;8.602;2022-11-28T06:33:55;5.59;85.04
66740;DHT22;53653;52.188;8.602;2022-11-28T06:36:21;5.60;85.88
66740;DHT22;53653;52.188;8.602;2022-11-28T06:38:47;5.62;85.80
66740;DHT22;53653;52.188;8.602;2022-11-28T06:41:15;5.63;85.30
66740;DHT22;53653;52.188;8.602;2022-11-28T06:43:41;5.63;84.78
66740;DHT22;53653;52.188;8.602;2022-11-28T06:46:15;5.69;85.27
66740;DHT22;53653;52.188;8.602;2022-11-28T06:48:41;5.66;84.17
66740;DHT22;53653;52.188;8.602;2022-11-28T06:51:07;5.67;84.95
66740;DHT22;53653;52.188;8.602;2022-11-28T06:53:32;5.63;85.19
66740;DHT22;53653;52.188;8.602;2022-11-28T06:56:06;5.66;85.98
66740;DHT22;53653;52.188;8.602;2022-11-28T06:58:32;5.67;84.29
66740;DHT22;53653;52.188;8.602;2022-11-28T07:01:07;5.65;85.00
66740;DHT22;53653;52.188;8.602;2022-11-28T07:03:33;5.62;84.61
66740;DHT22;53653;52.188;8.602;2022-11-28T07:06:00;5.58;85.93
66740;DHT22;53653;52.188;8.602;2022-11-28T07:08:25;5.58;84.52
66740;DHT22;53653;52.188;8.602;2022-11-28T07:10:51;5.58;85.54
66740;DHT22;53653;52.188;8.602;2022-11-28T07:13:16;5.59;86.48
66740;DHT22;53653;52.188;8.602;2022-11-28T07:15:47;5.59;85.04
66740;DHT22;53653;52.188;8.602;2022-11-28T07:18:14;5.63;85.01
66740;DHT22;53653;52.188;8.602;2022-11-28T07:20:39;5.60;86.25
66740;DHT22;53653;52.188;8.602;2022-11-28T07:23:05;5.53;85.82
66740;DHT22;53653;52.188;8.602;2022-11-28T07:25:31;5.52;86.66
66740;DHT22;53653;52.188;8.602;2022-11-28T07:27:58;5.51;86.46
66740;DHT22;53653;52.188;8.602;2022-11-28T07:30:24;5.45;86.91
66740;DHT22;53653;52.188;8.602;2022-11-28T07:32:50;5.45;87.76
66740;DHT22;53653;52.188;8.602;2022-11-28T07:35:15;5.41;87.32
66740;DHT22;53653;52.188;8.602;2022-11-28T07:37:41;5.39;88.00
66740;DHT22;53653;52.188;8.602;2022-11-28T07:40:07;5.41;89.30
66740;DHT22;53653;52.188;8.602;2022-11-28T07:42:32;5.38;88.53
66740;DHT22;53653;52.188;8.602;2022-11-28T07:44:58;5.41;89.14
66740;DHT22;53653;52.188;8.602;2022-11-28T07:47:24;5.39;88.81
66740;DHT22;53653;52.188;8.602;2022-11-28T07:49:49;5.41;89.52
66740;DHT22;53653;52.188;8.602;2022-11-28T07:52:14;5.43;88.68
66740;DHT22;53653;52.188;8.602;2022-11-28T07:54:40;5.45;89.00
66740;DHT22;53653;52.188;8.602;2022-11-28T08:02:20;5.42;89.06
66740;DHT22;53653;52.188;8.602;2022-11-28T08:04:46;5.43;88.84
66740;DHT22;53653;52.188;8.602;2022-11-28T08:07:12;5.43;88.62
66740;DHT22;53653;52.188;8.602;2022-11-28T08:09:38;5.41;88.45
66740;DHT22;53653;52.188;8.602;2022-11-28T08:12:03;5.43;88.90
66740;DHT22;53653;52.188;8.602;2022-11-28T08:14:29;5.48;88.69
66740;DHT22;53653;52.188;8.602;2022-11-28T08:16:54;5.53;88.66
66740;DHT22;53653;52.188;8.602;2022-11-28T08:19:22;5.46;87.96
66740;DHT22;53653;52.188;8.602;2022-11-28T08:21:48;5.49;88.18
66740;DHT22;53653;52.188;8.602;2022-11-28T08:24:13;5.45;88.60
66740;DHT22;53653;52.188;8.602;2022-11-28T08:26:39;5.45;88.29
66740;DHT22;53653;52.188;8.602;2022-11-28T08:29:04;5.43;88.98
66740;DHT22;53653;52.188;8.602;2022-11-28T08:31:33;5.41;88.15
66740;DHT22;53653;52.188;8.602;2022-11-28T08:34:02;5.42;88.85
66740;DHT22;53653;52.188;8.602;2022-11-28T08:36:28;5.38;88.51
66740;DHT22;53653;52.188;8.602;2022-11-28T08:38:53;5.39;88.43
66740;DHT22;53653;52.188;8.602;2022-11-28T08:41:21;5.42;89.35
66740;DHT22;53653;52.188;8.602;2022-11-28T08:43:48;5.43;88.16
66740;DHT22;53653;52.188;8.602;2022-11-28T08:46:19;5.46;88.36
66740;DHT22;53653;52.188;8.602;2022-11-28T08:48:46;5.46;87.98
66740;DHT22;53653;52.188;8.602;2022-11-28T08:51:13;5.52;88.33
66740;DHT22;53653;52.188;8.602;2022-11-28T08:53:40;5.49;87.48
66740;DHT22;53653;52.188;8.602;2022-11-28T08:56:06;5.49;86.45
66740;DHT22;53653;52.188;8.602;2022-11-28T08:58:31;5.53;87.51
66740;DHT22;53653;52.188;8.602;2022-11-28T09:00:56;5.55;87.46
66740;DHT22;53653;52.188;8.602;2022-11-28T09:03:22;5.53;86.34
66740;DHT22;53653;52.188;8.602;2022-11-28T09:05:48;5.58;86.55
66740;DHT22;53653;52.188;8.602;2022-11-28T09:08:15;5.58;87.27
66740;DHT22;53653;52.188;8.602;2022-11-28T09:10:41;5.63;86.00
66740;DHT22;53653;52.188;8.602;2022-11-28T09:13:08;5.63;86.16
66740;DHT22;53653;52.188;8.602;2022-11-28T09:15:38;5.69;86.47
66740;DHT22;53653;52.188;8.602;2022-11-28T09:18:03;5.66;86.43
66740;DHT22;53653;52.188;8.602;2022-11-28T09:20:29;5.66;86.89
66740;DHT22;53653;52.188;8.602;2022-11-28T09:22:54;5.70;86.88
66740;DHT22;53653;52.188;8.602;2022-11-28T09:25:20;5.76;87.69
66740;DHT22;53653;52.188;8.602;2022-11-28T09:27:45;5.70;86.75
66740;DHT22;53653;52.188;8.602;2022-11-28T09:30:11;5.73;86.25
66740;DHT22;53653;52.188;8.602;2022-11-28T09:32:37;5.74;86.98
66740;DHT22;53653;52.188;8.602;2022-11-28T09:38:24;5.81;87.45
66740;DHT22;53653;52.188;8.602;2022-11-28T09:40:50;5.81;87.33
66740;DHT22;53653;52.188;8.602;2022-11-28T13:41:21;6.64;85.65
66740;DHT22;53653;52.188;8.602;2022-11-28T13:44:03;6.64;85.85
66740;DHT22;53653;52.188;8.602;2022-11-28T13:46:32;6.68;86.38
66740;DHT22;53653;52.188;8.602;2022-11-28T13:49:01;6.72;86.39
66740;DHT22;53653;52.188;8.602;2022-11-28T13:51:32;6.75;85.81
66740;DHT22;53653;52.188;8.602;2022-11-28T13:56:42;6.75;87.23
66740;DHT22;53653;52.188;8.602;2022-11-28T13:59:16;6.72;86.20
66740;DHT22;53653;52.188;8.602;2022-11-28T14:01:44;6.73;86.48
66740;DHT22;53653;52.188;8.602;2022-11-28T14:04:15;6.68;86.22
66740;DHT22;53653;52.188;8.602;2022-11-28T14:06:47;6.68;87.51
66740;DHT22;53653;52.188;8.602;2022-11-28T14:12:06;6.62;87.21
66740;DHT22;53653;52.188;8.602;2022-11-28T14:14:44;6.58;87.59
66740;DHT22;53653;52.188;8.602;2022-11-28T14:25:52;6.22;90.32
66740;DHT22;53653;52.188;8.602;2022-11-28T16:47:43;5.89;93.45
66740;DHT22;53653;52.188;8.602;2022-11-28T16:50:37;5.93;93.51
66740;DHT22;53653;52.188;8.602;2022-11-28T16:53:03;5.90;93.09
66740;DHT22;53653;52.188;8.602;2022-11-28T16:58:11;5.91;92.72
66740;DHT22;53653;52.188;8.602;2022-11-28T17:00:42;5.89;92.79
66740;DHT22;53653;52.188;8.602;2022-11-28T17:03:39;5.87;93.20
66740;DHT22;53653;52.188;8.602;2022-11-28T17:06:12;5.87;93.01
66740;DHT22;53653;52.188;8.602;2022-11-28T17:08:39;5.87;93.34
66740;DHT22;53653;52.188;8.602;2022-11-28T17:11:04;5.89;93.12
66740;DHT22;53653;52.188;8.602;2022-11-28T17:13:30;5.87;93.02
66740;DHT22;53653;52.188;8.602;2022-11-28T17:15:55;5.89;93.13
66740;DHT22;53653;52.188;8.602;2022-11-28T17:18:21;5.85;92.89
66740;DHT22;53653;52.188;8.602;2022-11-28T17:20:46;5.81;93.20
66740;DHT22;53653;52.188;8.602;2022-11-28T17:23:11;5.81;93.55
66740;DHT22;53653;52.188;8.602;2022-11-28T17:25:39;5.85;93.57
66740;DHT22;53653;52.188;8.602;2022-11-28T17:28:04;5.83;93.16
66740;DHT22;53653;52.188;8.602;2022-11-28T17:30:30;5.79;93.82
66740;DHT22;53653;52.188;8.602;2022-11-28T17:32:55;5.85;94.47
66740;DHT22;53653;52.188;8.602;2022-11-28T17:35:22;5.85;94.44
66740;DHT22;53653;52.188;8.602;2022-11-28T17:37:48;5.80;94.16
66740;DHT22;53653;52.188;8.602;2022-11-28T17:40:14;5.80;94.30
66740;DHT22;53653;52.188;8.602;2022-11-28T17:42:58;5.74;94.46
66740;DHT22;53653;52.188;8.602;2022-11-28T17:45:24;5.79;94.65
66740;DHT22;53653;52.188;8.602;2022-11-28T17:47:50;5.70;94.48
66740;DHT22;53653;52.188;8.602;2022-11-28T17:50:15;5.70;95.02
66740;DHT22;53653;52.188;8.602;2022-11-28T17:52:42;5.70;94.92
66740;DHT22;53653;52.188;8.602;2022-11-28T17:55:08;5.69;95.12
66740;DHT22;53653;52.188;8.602;2022-11-28T17:57:34;5.67;95.12
66740;DHT22;53653;52.188;8.602;2022-11-28T18:00:00;5.74;95.42
66740;DHT22;53653;52.188;8.602;2022-11-28T18:02:26;5.74;95.36
66740;DHT22;53653;52.188;8.602;2022-11-28T18:04:51;5.77;95.35
66740;DHT22;53653;52.188;8.602;2022-11-28T18:07:17;5.79;95.21
66740;DHT22;53653;52.188;8.602;2022-11-28T18:09:42;5.74;94.95
66740;DHT22;53653;52.188;8.602;2022-11-28T18:12:07;5.76;95.39
66740;DHT22;53653;52.188;8.602;2022-11-28T18:14:33;5.79;95.35
66740;DHT22;53653;52.188;8.602;2022-11-28T18:17:11;5.83;95.41
66740;DHT22;53653;52.188;8.602;2022-11-28T18:19:36;5.86;95.43
66740;DHT22;53653;52.188;8.602;2022-11-28T18:24:41;5.87;95.43
66740;DHT22;53653;52.188;8.602;2022-11-28T18:27:07;5.89;95.40
66740;DHT22;53653;52.188;8.602;2022-11-28T18:29:32;5.90;95.45
66740;DHT22;53653;52.188;8.602;2022-11-28T18:31:58;5.86;95.32
66740;DHT22;53653;52.188;8.602;2022-11-28T18:34:24;5.89;95.75
66740;DHT22;53653;52.188;8.602;2022-11-28T18:36:50;5.87;95.76
66740;DHT22;53653;52.188;8.602;2022-11-28T18:39:22;5.86;95.79
66740;DHT22;53653;52.188;8.602;2022-11-28T18:41:48;5.87;96.08
66740;DHT22;53653;52.188;8.602;2022-11-28T18:44:13;5.85;95.89
66740;DHT22;53653;52.188;8.602;2022-11-28T18:46:39;5.83;96.23
66740;DHT22;53653;52.188;8.602;2022-11-28T18:49:04;5.85;96.42
66740;DHT22;53653;52.188;8.602;2022-11-28T18:51:32;5.81;96.36
66740;DHT22;53653;52.188;8.602;2022-11-28T18:53:58;5.80;96.25
66740;DHT22;53653;52.188;8.602;2022-11-28T18:56:25;5.77;96.34
66740;DHT22;53653;52.188;8.602;2022-11-28T18:58:52;5.74;96.29
66740;DHT22;53653;52.188;8.602;2022-11-28T19:03:49;5.77;96.73
66740;DHT22;53653;52.188;8.602;2022-11-28T19:06:15;5.72;96.40
66740;DHT22;53653;52.188;8.602;2022-11-28T19:08:40;5.72;96.55
66740;DHT22;53653;52.188;8.602;2022-11-28T19:11:08;5.73;96.77
66740;DHT22;53653;52.188;8.602;2022-11-28T19:13:42;5.72;96.56
66740;DHT22;53653;52.188;8.602;2022-11-28T19:16:10;5.67;96.53
66740;DHT22;53653;52.188;8.602;2022-11-28T19:18:36;5.69;96.61
66740;DHT22;53653;52.188;8.602;2022-11-28T19:21:22;5.73;96.61
66740;DHT22;53653;52.188;8.602;2022-11-28T19:23:49;5.76;96.38
66740;DHT22;53653;52.188;8.602;2022-11-28T19:26:17;5.77;96.41
66740;DHT22;53653;52.188;8.602;2022-11-28T19:28:43;5.74;96.41
66740;DHT22;53653;52.188;8.602;2022-11-28T19:31:18;5.80;96.59
66740;DHT22;53653;52.188;8.602;2022-11-28T19:33:57;5.76;96.41
66740;DHT22;53653;52.188;8.602;2022-11-28T19:36:23;5.77;96.76
66740;DHT22;53653;52.188;8.602;2022-11-28T19:38:48;5.85;96.75
66740;DHT22;53653;52.188;8.602;2022-11-28T19:41:18;5.83;96.73
66740;DHT22;53653;52.188;8.602;2022-11-28T19:43:44;5.85;96.50
66740;DHT22;53653;52.188;8.602;2022-11-28T19:46:11;5.87;96.48
66740;DHT22;53653;52.188;8.602;2022-11-28T19:48:38;5.89;96.55
66740;DHT22;53653;52.188;8.602;2022-11-28T19:51:05;5.90;96.58
66740;DHT22;53653;52.188;8.602;2022-11-28T19:53:32;5.89;96.25
66740;DHT22;53653;52.188;8.602;2022-11-28T19:56:12;5.90;96.19
66740;DHT22;53653;52.188;8.602;2022-11-28T19:58:39;5.85;96.07
66740;DHT22;53653;52.188;8.602;2022-11-28T20:01:10;5.81;95.77
66740;DHT22;53653;52.188;8.602;2022-11-28T20:03:38;5.79;95.82
66740;DHT22;53653;52.188;8.602;2022-11-28T20:08:43;5.79;95.72
66740;DHT22;53653;52.188;8.602;2022-11-28T20:11:38;5.79;95.38
66740;DHT22;53653;52.188;8.602;2022-11-28T20:14:07;5.81;95.64
66740;DHT22;53653;52.188;8.602;2022-11-28T20:16:35;5.86;95.52
66740;DHT22;53653;52.188;8.602;2022-11-28T20:19:01;5.91;95.58
66740;DHT22;53653;52.188;8.602;2022-11-28T20:21:33;6.00;95.52
66740;DHT22;53653;52.188;8.602;2022-11-28T20:24:01;6.04;94.97
66740;DHT22;53653;52.188;8.602;2022-11-28T20:26:29;6.06;94.73
66740;DHT22;53653;52.188;8.602;2022-11-28T20:28:55;6.01;94.22
66740;DHT22;53653;52.188;8.602;2022-11-28T20:33:48;6.09;93.93
66740;DHT22;53653;52.188;8.602;2022-11-28T20:36:16;6.06;93.70
66740;DHT22;53653;52.188;8.602;2022-11-28T20:38:41;6.07;93.69
66740;DHT22;53653;52.188;8.602;2022-11-28T20:41:08;6.07;94.02
66740;DHT22;53653;52.188;8.602;2022-11-28T20:43:36;6.06;94.29
66740;DHT22;53653;52.188;8.602;2022-11-28T20:46:06;6.00;94.06
66740;DHT22;53653;52.188;8.602;2022-11-28T20:48:32;6.04;94.15
66740;DHT22;53653;52.188;8.602;2022-11-28T20:54:19;6.13;93.95
66740;DHT22;53653;52.188;8.602;2022-11-28T20:56:45;6.11;93.97
66740;DHT22;53653;52.188;8.602;2022-11-28T20:59:14;6.16;93.91
66740;DHT22;53653;52.188;8.602;2022-11-28T21:01:40;6.10;93.64
66740;DHT22;53653;52.188;8.602;2022-11-28T21:10:53;6.04;94.26
66740;DHT22;53653;52.188;8.602;2022-11-28T21:13:18;6.13;94.47
66740;DHT22;53653;52.188;8.602;2022-11-28T21:15:44;6.06;93.98
66740;DHT22;53653;52.188;8.602;2022-11-28T21:25:02;5.86;95.25
66740;DHT22;53653;52.188;8.602;2022-11-28T21:27:27;5.86;95.61
66740;DHT22;53653;52.188;8.602;2022-11-28T21:46:59;5.90;96.12
66740;DHT22;53653;52.188;8.602;2022-11-28T21:49:24;5.91;96.45
66740;DHT22;53653;52.188;8.602;2022-11-28T21:51:49;5.90;96.28
66740;DHT22;53653;52.188;8.602;2022-11-28T21:54:15;5.96;96.32
66740;DHT22;53653;52.188;8.602;2022-11-28T21:56:40;5.94;96.24
66740;DHT22;53653;52.188;8.602;2022-11-28T21:59:06;5.97;96.16
66740;DHT22;53653;52.188;8.602;2022-11-28T22:01:37;6.01;96.19
66740;DHT22;53653;52.188;8.602;2022-11-28T22:04:03;6.04;95.98
66740;DHT22;53653;52.188;8.602;2022-11-28T22:06:28;6.06;95.70
66740;DHT22;53653;52.188;8.602;2022-11-28T22:08:54;6.09;95.68
66740;DHT22;53653;52.188;8.602;2022-11-28T22:11:20;6.10;95.59
66740;DHT22;53653;52.188;8.602;2022-11-28T22:13:46;6.10;95.36
66740;DHT22;53653;52.188;8.602;2022-11-28T22:16:15;6.07;95.30
66740;DHT22;53653;52.188;8.602;2022-11-28T22:18:41;6.04;95.53
66740;DHT22;53653;52.188;8.602;2022-11-28T22:21:08;6.01;95.69
66740;DHT22;53653;52.188;8.602;2022-11-28T22:23:35;6.01;95.87
66740;DHT22;53653;52.188;8.602;2022-11-28T22:26:02;6.04;96.15
66740;DHT22;53653;52.188;8.602;2022-11-28T22:28:27;6.06;96.26
66740;DHT22;53653;52.188;8.602;2022-11-28T22:30:53;6.06;96.13
66740;DHT22;53653;52.188;8.602;2022-11-28T22:33:18;6.06;96.03
66740;DHT22;53653;52.188;8.602;2022-11-28T22:35:44;6.06;96.08
66740;DHT22;53653;52.188;8.602;2022-11-28T22:38:11;6.03;96.10
66740;DHT22;53653;52.188;8.602;2022-11-28T22:40:36;6.03;96.08
66740;DHT22;53653;52.188;8.602;2022-11-28T22:43:02;5.97;96.55
66740;DHT22;53653;52.188;8.602;2022-11-28T22:45:27;5.99;96.43
66740;DHT22;53653;52.188;8.602;2022-11-28T22:51:17;5.94;96.89
66740;DHT22;53653;52.188;8.602;2022-11-28T22:53:43;5.97;96.91
66740;DHT22;53653;52.188;8.602;2022-11-28T22:56:11;5.96;96.70
66740;DHT22;53653;52.188;8.602;2022-11-28T22:58:38;5.97;96.83
66740;DHT22;53653;52.188;8.602;2022-11-28T23:01:08;6.01;96.67
66740;DHT22;53653;52.188;8.602;2022-11-28T23:03:34;6.07;96.62
66740;DHT22;53653;52.188;8.602;2022-11-28T23:06:07;6.04;96.62
66740;DHT22;53653;52.188;8.602;2022-11-28T23:08:34;6.01;96.74
66740;DHT22;53653;52.188;8.602;2022-11-28T23:11:04;6.04;96.67
66740;DHT22;53653;52.188;8.602;2022-11-28T23:13:30;5.99;96.65
66740;DHT22;53653;52.188;8.602;2022-11-28T23:16:10;6.00;96.96
66740;DHT22;53653;52.188;8.602;2022-11-28T23:18:35;5.99;96.84
66740;DHT22;53653;52.188;8.602;2022-11-28T23:21:01;5.99;96.74
66740;DHT22;53653;52.188;8.602;2022-11-28T23:23:26;5.94;96.79
66740;DHT22;53653;52.188;8.602;2022-11-28T23:25:51;5.91;96.78
66740;DHT22;53653;52.188;8.602;2022-11-28T23:28:17;5.91;96.81
66740;DHT22;53653;52.188;8.602;2022-11-28T23:30:42;5.91;96.92
66740;DHT22;53653;52.188;8.602;2022-11-28T23:33:08;5.91;97.16
66740;DHT22;53653;52.188;8.602;2022-11-28T23:35:33;5.93;96.96
66740;DHT22;53653;52.188;8.602;2022-11-28T23:37:58;5.97;97.02
66740;DHT22;53653;52.188;8.602;2022-11-28T23:40:24;5.97;96.94
66740;DHT22;53653;52.188;8.602;2022-11-28T23:42:49;5.99;97.13
66740;DHT22;53653;52.188;8.602;2022-11-28T23:45:15;5.99;96.96
66740;DHT22;53653;52.188;8.602;2022-11-28T23:47:40;5.97;96.94
66740;DHT22;53653;52.188;8.602;2022-11-28T23:50:06;5.96;97.07
66740;DHT22;53653;52.188;8.602;2022-11-28T23:52:31;5.93;97.01
66740;DHT22;53653;52.188;8.602;2022-11-28T23:54:57;5.96;97.14
66740;DHT22;53653;52.188;8.602;2022-11-28T23:57:22;5.96;96.96
66740;DHT22;53653;52.188;8.602;2022-11-28T23:59:47;5.96;97.30
